sensor_id;sensor_type;location;lat;lon;timestamp;P1;durP1;ratioP1;P2;durP2;ratioP2
28192;SDS011;15473;50.840;3.396;2023-04-01T00:01:13;2.80;;;1.60;;
28192;SDS011;15473;50.840;3.396;2023-04-01T00:03:44;2.98;;;1.62;;
28192;SDS011;15473;50.840;3.396;2023-04-01T00:06:15;3.08;;;1.50;;
28192;SDS011;15473;50.840;3.396;2023-04-01T00:08:53;8.50;;;1.80;;
28192;SDS011;15473;50.840;3.396;2023-04-01T00:11:25;7.72;;;1.85;;
28192;SDS011;15473;50.840;3.396;2023-04-01T00:14:07;3.35;;;1.75;;
28192;SDS011;15473;50.840;3.396;2023-04-01T00:16:38;6.45;;;1.95;;
28192;SDS011;15473;50.840;3.396;2023-04-01T00:19:15;3.20;;;1.75;;
28192;SDS011;15473;50.840;3.396;2023-04-01T00:21:46;7.50;;;2.40;;
28192;SDS011;15473;50.840;3.396;2023-04-01T00:24:16;3.02;;;1.82;;
28192;SDS011;15473;50.840;3.396;2023-04-01T00:26:53;7.05;;;2.08;;
28192;SDS011;15473;50.840;3.396;2023-04-01T00:29:30;4.85;;;2.05;;
28192;SDS011;15473;50.840;3.396;2023-04-01T00:32:07;7.42;;;2.47;;
28192;SDS011;15473;50.840;3.396;2023-04-01T00:34:37;7.75;;;2.00;;
28192;SDS011;15473;50.840;3.396;2023-04-01T00:37:09;6.80;;;2.62;;
28192;SDS011;15473;50.840;3.396;2023-04-01T00:39:40;5.83;;;2.02;;
28192;SDS011;15473;50.840;3.396;2023-04-01T00:42:16;3.87;;;2.10;;
28192;SDS011;15473;50.840;3.396;2023-04-01T00:44:53;7.87;;;2.37;;
28192;SDS011;15473;50.840;3.396;2023-04-01T00:47:24;5.08;;;2.12;;
28192;SDS011;15473;50.840;3.396;2023-04-01T00:49:55;3.85;;;2.37;;
28192;SDS011;15473;50.840;3.396;2023-04-01T00:52:32;4.62;;;2.67;;
28192;SDS011;15473;50.840;3.396;2023-04-01T00:55:04;6.40;;;2.60;;
28192;SDS011;15473;50.840;3.396;2023-04-01T00:57:44;6.72;;;3.05;;
28192;SDS011;15473;50.840;3.396;2023-04-01T01:00:24;9.73;;;3.35;;
28192;SDS011;15473;50.840;3.396;2023-04-01T01:02:54;5.17;;;2.75;;
28192;SDS011;15473;50.840;3.396;2023-04-01T01:05:34;6.62;;;3.25;;
28192;SDS011;15473;50.840;3.396;2023-04-01T01:08:20;4.28;;;2.90;;
28192;SDS011;15473;50.840;3.396;2023-04-01T01:11:06;4.03;;;2.83;;
28192;SDS011;15473;50.840;3.396;2023-04-01T01:13:43;6.77;;;2.87;;
28192;SDS011;15473;50.840;3.396;2023-04-01T01:21:42;6.72;;;3.60;;
28192;SDS011;15473;50.840;3.396;2023-04-01T01:27:12;5.92;;;3.70;;
28192;SDS011;15473;50.840;3.396;2023-04-01T01:30:10;10.58;;;4.30;;
28192;SDS011;15473;50.840;3.396;2023-04-01T01:33:02;8.50;;;4.37;;
28192;SDS011;15473;50.840;3.396;2023-04-01T01:35:37;13.58;;;5.40;;
28192;SDS011;15473;50.840;3.396;2023-04-01T01:38:18;13.38;;;4.37;;
28192;SDS011;15473;50.840;3.396;2023-04-01T01:41:09;13.55;;;4.72;;
28192;SDS011;15473;50.840;3.396;2023-04-01T01:43:48;12.45;;;4.08;;
28192;SDS011;15473;50.840;3.396;2023-04-01T01:46:27;10.08;;;3.90;;
28192;SDS011;15473;50.840;3.396;2023-04-01T01:49:01;9.25;;;3.55;;
28192;SDS011;15473;50.840;3.396;2023-04-01T01:51:33;10.00;;;4.05;;
28192;SDS011;15473;50.840;3.396;2023-04-01T01:54:03;11.08;;;4.15;;
28192;SDS011;15473;50.840;3.396;2023-04-01T01:56:33;11.48;;;4.22;;
28192;SDS011;15473;50.840;3.396;2023-04-01T01:59:05;7.17;;;3.77;;
28192;SDS011;15473;50.840;3.396;2023-04-01T02:01:41;10.00;;;3.90;;
28192;SDS011;15473;50.840;3.396;2023-04-01T02:04:32;11.43;;;4.80;;
28192;SDS011;15473;50.840;3.396;2023-04-01T02:07:08;11.53;;;4.53;;
28192;SDS011;15473;50.840;3.396;2023-04-01T02:09:49;11.18;;;4.15;;
28192;SDS011;15473;50.840;3.396;2023-04-01T02:12:26;10.20;;;4.30;;
28192;SDS011;15473;50.840;3.396;2023-04-01T02:15:17;10.35;;;4.30;;
28192;SDS011;15473;50.840;3.396;2023-04-01T02:17:52;9.00;;;4.15;;
28192;SDS011;15473;50.840;3.396;2023-04-01T02:20:25;11.05;;;4.30;;
28192;SDS011;15473;50.840;3.396;2023-04-01T02:23:04;17.23;;;4.95;;
28192;SDS011;15473;50.840;3.396;2023-04-01T02:25:36;12.03;;;4.70;;
28192;SDS011;15473;50.840;3.396;2023-04-01T02:28:10;13.90;;;4.70;;
28192;SDS011;15473;50.840;3.396;2023-04-01T02:30:42;12.55;;;4.12;;
28192;SDS011;15473;50.840;3.396;2023-04-01T02:33:13;7.65;;;4.30;;
28192;SDS011;15473;50.840;3.396;2023-04-01T02:35:51;13.70;;;4.80;;
28192;SDS011;15473;50.840;3.396;2023-04-01T02:38:28;8.33;;;4.40;;
28192;SDS011;15473;50.840;3.396;2023-04-01T02:41:04;13.22;;;4.42;;
28192;SDS011;15473;50.840;3.396;2023-04-01T02:43:38;9.35;;;4.03;;
28192;SDS011;15473;50.840;3.396;2023-04-01T02:46:08;12.93;;;4.95;;
28192;SDS011;15473;50.840;3.396;2023-04-01T02:48:45;12.03;;;3.67;;
28192;SDS011;15473;50.840;3.396;2023-04-01T02:51:21;8.95;;;4.33;;
28192;SDS011;15473;50.840;3.396;2023-04-01T02:53:57;7.62;;;4.05;;
28192;SDS011;15473;50.840;3.396;2023-04-01T02:56:29;8.58;;;3.35;;
28192;SDS011;15473;50.840;3.396;2023-04-01T02:58:59;9.90;;;4.03;;
28192;SDS011;15473;50.840;3.396;2023-04-01T03:01:35;10.82;;;4.12;;
28192;SDS011;15473;50.840;3.396;2023-04-01T03:04:12;13.62;;;3.98;;
28192;SDS011;15473;50.840;3.396;2023-04-01T03:06:42;10.53;;;3.80;;
28192;SDS011;15473;50.840;3.396;2023-04-01T03:09:18;11.45;;;4.05;;
28192;SDS011;15473;50.840;3.396;2023-04-01T03:11:49;7.85;;;4.50;;
28192;SDS011;15473;50.840;3.396;2023-04-01T03:14:19;8.08;;;3.70;;
28192;SDS011;15473;50.840;3.396;2023-04-01T03:16:50;9.25;;;4.53;;
28192;SDS011;15473;50.840;3.396;2023-04-01T03:19:26;10.10;;;4.42;;
28192;SDS011;15473;50.840;3.396;2023-04-01T03:22:04;9.03;;;4.40;;
28192;SDS011;15473;50.840;3.396;2023-04-01T03:24:34;10.03;;;5.08;;
28192;SDS011;15473;50.840;3.396;2023-04-01T03:27:10;11.35;;;5.30;;
28192;SDS011;15473;50.840;3.396;2023-04-01T03:29:41;9.25;;;4.53;;
28192;SDS011;15473;50.840;3.396;2023-04-01T03:32:14;9.23;;;4.70;;
28192;SDS011;15473;50.840;3.396;2023-04-01T03:34:45;12.15;;;4.95;;
28192;SDS011;15473;50.840;3.396;2023-04-01T03:37:22;10.53;;;4.83;;
28192;SDS011;15473;50.840;3.396;2023-04-01T03:39:52;11.65;;;5.65;;
28192;SDS011;15473;50.840;3.396;2023-04-01T03:42:22;11.73;;;5.35;;
28192;SDS011;15473;50.840;3.396;2023-04-01T03:44:53;8.85;;;4.87;;
28192;SDS011;15473;50.840;3.396;2023-04-01T03:47:24;8.55;;;5.15;;
28192;SDS011;15473;50.840;3.396;2023-04-01T03:49:54;8.88;;;5.10;;
28192;SDS011;15473;50.840;3.396;2023-04-01T03:52:28;12.50;;;6.85;;
28192;SDS011;15473;50.840;3.396;2023-04-01T03:55:00;12.55;;;5.65;;
28192;SDS011;15473;50.840;3.396;2023-04-01T03:57:50;11.00;;;5.10;;
28192;SDS011;15473;50.840;3.396;2023-04-01T04:00:20;12.60;;;5.92;;
28192;SDS011;15473;50.840;3.396;2023-04-01T04:02:58;12.65;;;5.80;;
28192;SDS011;15473;50.840;3.396;2023-04-01T04:05:28;10.03;;;5.85;;
28192;SDS011;15473;50.840;3.396;2023-04-01T04:07:59;10.25;;;5.05;;
28192;SDS011;15473;50.840;3.396;2023-04-01T04:10:29;8.60;;;5.67;;
28192;SDS011;15473;50.840;3.396;2023-04-01T04:13:01;10.82;;;5.00;;
28192;SDS011;15473;50.840;3.396;2023-04-01T04:15:31;9.50;;;4.92;;
28192;SDS011;15473;50.840;3.396;2023-04-01T04:18:07;10.18;;;5.42;;
28192;SDS011;15473;50.840;3.396;2023-04-01T04:20:42;9.58;;;5.33;;
28192;SDS011;15473;50.840;3.396;2023-04-01T04:23:10;9.40;;;5.22;;
28192;SDS011;15473;50.840;3.396;2023-04-01T04:25:53;12.50;;;6.17;;
28192;SDS011;15473;50.840;3.396;2023-04-01T04:28:26;11.03;;;5.75;;
28192;SDS011;15473;50.840;3.396;2023-04-01T04:30:56;11.28;;;5.17;;
28192;SDS011;15473;50.840;3.396;2023-04-01T04:33:27;9.68;;;5.50;;
28192;SDS011;15473;50.840;3.396;2023-04-01T04:35:58;16.48;;;5.55;;
28192;SDS011;15473;50.840;3.396;2023-04-01T04:38:28;11.50;;;6.10;;
28192;SDS011;15473;50.840;3.396;2023-04-01T04:41:13;9.35;;;4.92;;
28192;SDS011;15473;50.840;3.396;2023-04-01T04:43:48;12.23;;;5.62;;
28192;SDS011;15473;50.840;3.396;2023-04-01T04:46:19;9.30;;;4.72;;
28192;SDS011;15473;50.840;3.396;2023-04-01T04:48:57;10.90;;;5.28;;
28192;SDS011;15473;50.840;3.396;2023-04-01T04:51:33;8.95;;;4.37;;
28192;SDS011;15473;50.840;3.396;2023-04-01T04:54:04;8.70;;;4.40;;
28192;SDS011;15473;50.840;3.396;2023-04-01T04:56:35;9.65;;;4.58;;
28192;SDS011;15473;50.840;3.396;2023-04-01T04:59:06;10.35;;;4.65;;
28192;SDS011;15473;50.840;3.396;2023-04-01T05:01:43;9.63;;;6.12;;
28192;SDS011;15473;50.840;3.396;2023-04-01T05:04:13;9.53;;;5.28;;
28192;SDS011;15473;50.840;3.396;2023-04-01T05:06:50;9.33;;;4.87;;
28192;SDS011;15473;50.840;3.396;2023-04-01T05:09:20;10.38;;;5.30;;
28192;SDS011;15473;50.840;3.396;2023-04-01T05:11:50;8.48;;;4.85;;
28192;SDS011;15473;50.840;3.396;2023-04-01T05:14:21;10.53;;;4.92;;
28192;SDS011;15473;50.840;3.396;2023-04-01T05:16:52;8.45;;;5.03;;
28192;SDS011;15473;50.840;3.396;2023-04-01T05:19:26;7.85;;;4.87;;
28192;SDS011;15473;50.840;3.396;2023-04-01T05:21:56;7.08;;;5.20;;
28192;SDS011;15473;50.840;3.396;2023-04-01T05:24:32;9.40;;;4.97;;
28192;SDS011;15473;50.840;3.396;2023-04-01T05:27:02;7.78;;;4.70;;
28192;SDS011;15473;50.840;3.396;2023-04-01T05:29:32;8.78;;;6.10;;
28192;SDS011;15473;50.840;3.396;2023-04-01T05:32:03;9.93;;;5.10;;
28192;SDS011;15473;50.840;3.396;2023-04-01T05:34:33;8.45;;;5.28;;
28192;SDS011;15473;50.840;3.396;2023-04-01T05:37:03;10.78;;;5.12;;
28192;SDS011;15473;50.840;3.396;2023-04-01T05:39:39;10.23;;;4.87;;
28192;SDS011;15473;50.840;3.396;2023-04-01T05:42:16;14.47;;;4.83;;
28192;SDS011;15473;50.840;3.396;2023-04-01T05:44:50;9.75;;;5.10;;
28192;SDS011;15473;50.840;3.396;2023-04-01T05:47:21;7.85;;;4.72;;
28192;SDS011;15473;50.840;3.396;2023-04-01T05:49:51;6.53;;;4.75;;
28192;SDS011;15473;50.840;3.396;2023-04-01T05:52:21;12.50;;;4.80;;
28192;SDS011;15473;50.840;3.396;2023-04-01T05:54:55;7.53;;;4.85;;
28192;SDS011;15473;50.840;3.396;2023-04-01T05:57:25;7.53;;;4.87;;
28192;SDS011;15473;50.840;3.396;2023-04-01T05:59:55;9.75;;;5.22;;
28192;SDS011;15473;50.840;3.396;2023-04-01T06:02:25;11.45;;;5.80;;
28192;SDS011;15473;50.840;3.396;2023-04-01T06:05:08;9.90;;;5.33;;
28192;SDS011;15473;50.840;3.396;2023-04-01T06:08:02;9.33;;;4.70;;
28192;SDS011;15473;50.840;3.396;2023-04-01T06:10:38;6.75;;;4.28;;
28192;SDS011;15473;50.840;3.396;2023-04-01T06:16:19;9.40;;;4.78;;
28192;SDS011;15473;50.840;3.396;2023-04-01T06:19:25;9.73;;;4.90;;
28192;SDS011;15473;50.840;3.396;2023-04-01T06:40:02;10.53;;;4.90;;
28192;SDS011;15473;50.840;3.396;2023-04-01T06:45:56;8.70;;;5.22;;
28192;SDS011;15473;50.840;3.396;2023-04-01T06:54:25;6.28;;;4.25;;
28192;SDS011;15473;50.840;3.396;2023-04-01T06:57:24;5.67;;;3.92;;
28192;SDS011;15473;50.840;3.396;2023-04-01T06:59:55;8.05;;;3.92;;
28192;SDS011;15473;50.840;3.396;2023-04-01T07:02:32;5.65;;;3.62;;
28192;SDS011;15473;50.840;3.396;2023-04-01T07:05:03;5.37;;;3.87;;
28192;SDS011;15473;50.840;3.396;2023-04-01T07:07:41;6.45;;;4.20;;
28192;SDS011;15473;50.840;3.396;2023-04-01T07:10:27;5.92;;;3.72;;
28192;SDS011;15473;50.840;3.396;2023-04-01T07:12:57;4.15;;;3.42;;
28192;SDS011;15473;50.840;3.396;2023-04-01T07:15:36;4.72;;;3.30;;
28192;SDS011;15473;50.840;3.396;2023-04-01T07:18:18;5.40;;;3.20;;
28192;SDS011;15473;50.840;3.396;2023-04-01T07:20:56;3.58;;;2.77;;
28192;SDS011;15473;50.840;3.396;2023-04-01T07:23:38;6.37;;;2.37;;
28192;SDS011;15473;50.840;3.396;2023-04-01T07:26:20;2.80;;;2.55;;
28192;SDS011;15473;50.840;3.396;2023-04-01T07:28:58;6.67;;;2.47;;
28192;SDS011;15473;50.840;3.396;2023-04-01T07:42:57;5.12;;;1.98;;
28192;SDS011;15473;50.840;3.396;2023-04-01T07:45:45;1.60;;;1.50;;
28192;SDS011;15473;50.840;3.396;2023-04-01T07:48:37;1.80;;;1.47;;
28192;SDS011;15473;50.840;3.396;2023-04-01T08:05:45;3.60;;;2.00;;
28192;SDS011;15473;50.840;3.396;2023-04-01T08:08:37;1.82;;;1.72;;
28192;SDS011;15473;50.840;3.396;2023-04-01T08:11:19;3.12;;;2.02;;
28192;SDS011;15473;50.840;3.396;2023-04-01T08:23:12;5.00;;;2.20;;
28192;SDS011;15473;50.840;3.396;2023-04-01T08:28:55;3.77;;;2.30;;
28192;SDS011;15473;50.840;3.396;2023-04-01T08:31:38;2.10;;;1.60;;
28192;SDS011;15473;50.840;3.396;2023-04-01T08:34:14;5.25;;;2.30;;
28192;SDS011;15473;50.840;3.396;2023-04-01T08:36:53;2.17;;;1.82;;
28192;SDS011;15473;50.840;3.396;2023-04-01T08:42:57;1.80;;;1.30;;
28192;SDS011;15473;50.840;3.396;2023-04-01T08:48:49;2.25;;;1.90;;
28192;SDS011;15473;50.840;3.396;2023-04-01T08:51:43;1.65;;;1.50;;
28192;SDS011;15473;50.840;3.396;2023-04-01T08:57:15;4.83;;;1.80;;
28192;SDS011;15473;50.840;3.396;2023-04-01T09:05:39;2.25;;;1.77;;
28192;SDS011;15473;50.840;3.396;2023-04-01T09:11:08;3.30;;;1.77;;
28192;SDS011;15473;50.840;3.396;2023-04-01T09:13:43;5.42;;;2.00;;
28192;SDS011;15473;50.840;3.396;2023-04-01T09:19:19;3.35;;;2.10;;
28192;SDS011;15473;50.840;3.396;2023-04-01T09:27:25;4.08;;;1.80;;
28192;SDS011;15473;50.840;3.396;2023-04-01T09:44:58;2.85;;;1.30;;
28192;SDS011;15473;50.840;3.396;2023-04-01T09:53:46;4.55;;;1.45;;
28192;SDS011;15473;50.840;3.396;2023-04-01T10:05:51;2.58;;;1.50;;
28192;SDS011;15473;50.840;3.396;2023-04-01T10:08:14;2.25;;;1.55;;
28192;SDS011;15473;50.840;3.396;2023-04-01T10:14:08;2.27;;;1.00;;
28192;SDS011;15473;50.840;3.396;2023-04-01T10:23:01;1.32;;;1.00;;
28192;SDS011;15473;50.840;3.396;2023-04-01T10:29:00;3.50;;;1.27;;
28192;SDS011;15473;50.840;3.396;2023-04-01T10:55:14;2.52;;;0.93;;
28192;SDS011;15473;50.840;3.396;2023-04-01T10:58:24;0.93;;;0.78;;
28192;SDS011;15473;50.840;3.396;2023-04-01T11:07:12;1.00;;;0.90;;
28192;SDS011;15473;50.840;3.396;2023-04-01T11:10:16;0.63;;;0.63;;
28192;SDS011;15473;50.840;3.396;2023-04-01T11:21:15;3.22;;;1.00;;
28192;SDS011;15473;50.840;3.396;2023-04-01T11:24:05;2.90;;;1.25;;
28192;SDS011;15473;50.840;3.396;2023-04-01T11:29:57;3.40;;;1.02;;
28192;SDS011;15473;50.840;3.396;2023-04-01T11:36:07;1.98;;;0.70;;
28192;SDS011;15473;50.840;3.396;2023-04-01T11:39:16;3.50;;;0.93;;
28192;SDS011;15473;50.840;3.396;2023-04-01T11:53:44;5.28;;;0.95;;
28192;SDS011;15473;50.840;3.396;2023-04-01T11:59:51;0.90;;;0.90;;
28192;SDS011;15473;50.840;3.396;2023-04-01T12:05:21;2.92;;;1.50;;
28192;SDS011;15473;50.840;3.396;2023-04-01T12:10:36;1.15;;;0.95;;
28192;SDS011;15473;50.840;3.396;2023-04-01T12:13:34;1.47;;;1.15;;
28192;SDS011;15473;50.840;3.396;2023-04-01T12:16:08;1.12;;;1.02;;
28192;SDS011;15473;50.840;3.396;2023-04-01T12:21:38;1.85;;;1.02;;
28192;SDS011;15473;50.840;3.396;2023-04-01T12:31:27;1.52;;;0.95;;
28192;SDS011;15473;50.840;3.396;2023-04-01T12:35:54;1.32;;;0.80;;
28192;SDS011;15473;50.840;3.396;2023-04-01T12:38:43;0.60;;;0.60;;
28192;SDS011;15473;50.840;3.396;2023-04-01T12:44:41;0.57;;;0.57;;
28192;SDS011;15473;50.840;3.396;2023-04-01T12:53:23;0.70;;;0.70;;
28192;SDS011;15473;50.840;3.396;2023-04-01T13:02:12;1.35;;;0.62;;
28192;SDS011;15473;50.840;3.396;2023-04-01T13:07:51;0.60;;;0.60;;
28192;SDS011;15473;50.840;3.396;2023-04-01T13:10:29;2.58;;;0.68;;
28192;SDS011;15473;50.840;3.396;2023-04-01T13:13:28;0.62;;;0.60;;
28192;SDS011;15473;50.840;3.396;2023-04-01T13:19:07;0.72;;;0.55;;
28192;SDS011;15473;50.840;3.396;2023-04-01T13:22:08;0.72;;;0.60;;
28192;SDS011;15473;50.840;3.396;2023-04-01T13:24:53;0.85;;;0.80;;
28192;SDS011;15473;50.840;3.396;2023-04-01T13:27:40;0.75;;;0.75;;
28192;SDS011;15473;50.840;3.396;2023-04-01T13:32:59;1.67;;;0.88;;
28192;SDS011;15473;50.840;3.396;2023-04-01T13:35:48;3.52;;;0.90;;
28192;SDS011;15473;50.840;3.396;2023-04-01T13:38:38;2.62;;;0.80;;
28192;SDS011;15473;50.840;3.396;2023-04-01T13:43:39;0.68;;;0.68;;
28192;SDS011;15473;50.840;3.396;2023-04-01T13:54:45;1.75;;;0.90;;
28192;SDS011;15473;50.840;3.396;2023-04-01T13:57:34;1.90;;;0.80;;
28192;SDS011;15473;50.840;3.396;2023-04-01T14:03:21;1.00;;;0.78;;
28192;SDS011;15473;50.840;3.396;2023-04-01T14:06:06;0.82;;;0.60;;
28192;SDS011;15473;50.840;3.396;2023-04-01T14:18:05;0.75;;;0.68;;
28192;SDS011;15473;50.840;3.396;2023-04-01T14:24:06;0.90;;;0.90;;
28192;SDS011;15473;50.840;3.396;2023-04-01T14:26:56;1.37;;;0.78;;
28192;SDS011;15473;50.840;3.396;2023-04-01T14:29:39;0.90;;;0.62;;
28192;SDS011;15473;50.840;3.396;2023-04-01T14:35:37;2.67;;;1.17;;
28192;SDS011;15473;50.840;3.396;2023-04-01T14:44:00;1.80;;;1.00;;
28192;SDS011;15473;50.840;3.396;2023-04-01T14:49:35;2.90;;;0.88;;
28192;SDS011;15473;50.840;3.396;2023-04-01T14:52:33;2.65;;;0.95;;
28192;SDS011;15473;50.840;3.396;2023-04-01T15:01:06;3.30;;;1.05;;
28192;SDS011;15473;50.840;3.396;2023-04-01T15:06:27;1.67;;;1.10;;
28192;SDS011;15473;50.840;3.396;2023-04-01T15:09:05;0.65;;;0.65;;
28192;SDS011;15473;50.840;3.396;2023-04-01T15:11:54;2.08;;;0.78;;
28192;SDS011;15473;50.840;3.396;2023-04-01T15:15:17;4.83;;;0.88;;
28192;SDS011;15473;50.840;3.396;2023-04-01T15:31:39;1.00;;;0.90;;
28192;SDS011;15473;50.840;3.396;2023-04-01T15:34:53;1.20;;;1.00;;
28192;SDS011;15473;50.840;3.396;2023-04-01T15:40:05;1.25;;;0.80;;
28192;SDS011;15473;50.840;3.396;2023-04-01T15:45:22;0.85;;;0.85;;
28192;SDS011;15473;50.840;3.396;2023-04-01T15:50:48;2.65;;;0.90;;
28192;SDS011;15473;50.840;3.396;2023-04-01T16:02:02;1.50;;;1.10;;
28192;SDS011;15473;50.840;3.396;2023-04-01T16:17:25;4.40;;;1.35;;
28192;SDS011;15473;50.840;3.396;2023-04-01T16:22:59;2.10;;;1.27;;
28192;SDS011;15473;50.840;3.396;2023-04-01T16:28:34;2.85;;;1.20;;
28192;SDS011;15473;50.840;3.396;2023-04-01T16:35:12;2.02;;;1.30;;
28192;SDS011;15473;50.840;3.396;2023-04-01T16:42:47;3.17;;;1.27;;
28192;SDS011;15473;50.840;3.396;2023-04-01T16:45:30;2.27;;;1.00;;
28192;SDS011;15473;50.840;3.396;2023-04-01T16:48:07;3.17;;;0.98;;
28192;SDS011;15473;50.840;3.396;2023-04-01T16:50:55;4.00;;;1.30;;
28192;SDS011;15473;50.840;3.396;2023-04-01T16:56:23;1.25;;;1.10;;
28192;SDS011;15473;50.840;3.396;2023-04-01T16:58:57;1.67;;;1.05;;
28192;SDS011;15473;50.840;3.396;2023-04-01T17:01:55;5.78;;;1.20;;
28192;SDS011;15473;50.840;3.396;2023-04-01T17:05:15;2.75;;;1.02;;
28192;SDS011;15473;50.840;3.396;2023-04-01T17:07:48;1.80;;;1.07;;
28192;SDS011;15473;50.840;3.396;2023-04-01T17:10:54;1.67;;;1.25;;
28192;SDS011;15473;50.840;3.396;2023-04-01T17:13:34;2.30;;;1.30;;
28192;SDS011;15473;50.840;3.396;2023-04-01T17:25:04;3.22;;;1.20;;
28192;SDS011;15473;50.840;3.396;2023-04-01T17:27:52;1.07;;;0.98;;
28192;SDS011;15473;50.840;3.396;2023-04-01T17:30:37;3.92;;;1.67;;
28192;SDS011;15473;50.840;3.396;2023-04-01T17:36:21;1.98;;;1.37;;
28192;SDS011;15473;50.840;3.396;2023-04-01T17:42:16;3.05;;;0.93;;
28192;SDS011;15473;50.840;3.396;2023-04-01T17:47:58;2.55;;;1.50;;
28192;SDS011;15473;50.840;3.396;2023-04-01T17:53:51;4.22;;;1.55;;
28192;SDS011;15473;50.840;3.396;2023-04-01T17:59:28;3.37;;;1.45;;
28192;SDS011;15473;50.840;3.396;2023-04-01T18:02:47;2.02;;;1.67;;
28192;SDS011;15473;50.840;3.396;2023-04-01T18:05:01;2.05;;;1.67;;
28192;SDS011;15473;50.840;3.396;2023-04-01T18:13:41;5.50;;;2.30;;
28192;SDS011;15473;50.840;3.396;2023-04-01T18:16:41;7.25;;;2.60;;
28192;SDS011;15473;50.840;3.396;2023-04-01T18:25:12;3.55;;;2.52;;
28192;SDS011;15473;50.840;3.396;2023-04-01T18:27:48;5.80;;;2.40;;
28192;SDS011;15473;50.840;3.396;2023-04-01T18:30:38;6.10;;;2.62;;
28192;SDS011;15473;50.840;3.396;2023-04-01T18:33:29;5.12;;;2.52;;
28192;SDS011;15473;50.840;3.396;2023-04-01T18:39:11;4.05;;;2.40;;
28192;SDS011;15473;50.840;3.396;2023-04-01T18:42:28;2.92;;;2.42;;
28192;SDS011;15473;50.840;3.396;2023-04-01T18:54:00;4.08;;;2.50;;
28192;SDS011;15473;50.840;3.396;2023-04-01T18:56:45;3.47;;;2.30;;
28192;SDS011;15473;50.840;3.396;2023-04-01T18:59:25;2.92;;;1.80;;
28192;SDS011;15473;50.840;3.396;2023-04-01T19:02:16;3.80;;;2.45;;
28192;SDS011;15473;50.840;3.396;2023-04-01T19:05:33;3.12;;;2.37;;
28192;SDS011;15473;50.840;3.396;2023-04-01T19:10:37;4.30;;;2.55;;
28192;SDS011;15473;50.840;3.396;2023-04-01T19:13:21;2.75;;;2.40;;
28192;SDS011;15473;50.840;3.396;2023-04-01T19:16:04;4.42;;;2.40;;
28192;SDS011;15473;50.840;3.396;2023-04-01T19:19:05;5.25;;;2.55;;
28192;SDS011;15473;50.840;3.396;2023-04-01T19:26:53;4.60;;;2.58;;
28192;SDS011;15473;50.840;3.396;2023-04-01T19:35:42;5.67;;;2.95;;
28192;SDS011;15473;50.840;3.396;2023-04-01T19:41:21;6.12;;;3.65;;
28192;SDS011;15473;50.840;3.396;2023-04-01T19:44:09;5.55;;;3.60;;
28192;SDS011;15473;50.840;3.396;2023-04-01T19:47:11;6.08;;;3.30;;
28192;SDS011;15473;50.840;3.396;2023-04-01T19:49:46;6.05;;;4.05;;
28192;SDS011;15473;50.840;3.396;2023-04-01T19:52:39;10.98;;;4.42;;
28192;SDS011;15473;50.840;3.396;2023-04-01T19:56:07;11.78;;;4.12;;
28192;SDS011;15473;50.840;3.396;2023-04-01T19:58:45;10.70;;;3.77;;
28192;SDS011;15473;50.840;3.396;2023-04-01T20:01:43;10.08;;;4.15;;
28192;SDS011;15473;50.840;3.396;2023-04-01T20:04:21;8.05;;;4.47;;
28192;SDS011;15473;50.840;3.396;2023-04-01T20:07:20;15.78;;;4.58;;
28192;SDS011;15473;50.840;3.396;2023-04-01T20:12:56;10.30;;;4.97;;
28192;SDS011;15473;50.840;3.396;2023-04-01T20:18:25;10.32;;;4.87;;
28192;SDS011;15473;50.840;3.396;2023-04-01T20:24:23;8.00;;;5.22;;
28192;SDS011;15473;50.840;3.396;2023-04-01T20:29:54;11.77;;;6.23;;
28192;SDS011;15473;50.840;3.396;2023-04-01T20:32:33;14.13;;;6.47;;
28192;SDS011;15473;50.840;3.396;2023-04-01T20:38:21;16.95;;;6.62;;
28192;SDS011;15473;50.840;3.396;2023-04-01T20:41:03;16.02;;;6.83;;
28192;SDS011;15473;50.840;3.396;2023-04-01T20:43:56;13.22;;;6.33;;
28192;SDS011;15473;50.840;3.396;2023-04-01T20:49:21;11.07;;;6.47;;
28192;SDS011;15473;50.840;3.396;2023-04-01T20:52:29;16.10;;;6.17;;
28192;SDS011;15473;50.840;3.396;2023-04-01T21:01:00;21.05;;;7.50;;
28192;SDS011;15473;50.840;3.396;2023-04-01T21:09:38;15.20;;;7.47;;
28192;SDS011;15473;50.840;3.396;2023-04-01T21:15:34;20.12;;;8.40;;
28192;SDS011;15473;50.840;3.396;2023-04-01T21:21:25;17.90;;;8.88;;
28192;SDS011;15473;50.840;3.396;2023-04-01T21:27:09;19.48;;;8.45;;
28192;SDS011;15473;50.840;3.396;2023-04-01T21:29:51;16.90;;;8.68;;
28192;SDS011;15473;50.840;3.396;2023-04-01T21:32:28;26.40;;;8.88;;
28192;SDS011;15473;50.840;3.396;2023-04-01T21:35:20;16.67;;;8.43;;
28192;SDS011;15473;50.840;3.396;2023-04-01T21:38:14;20.97;;;8.93;;
28192;SDS011;15473;50.840;3.396;2023-04-01T21:41:12;21.62;;;8.95;;
28192;SDS011;15473;50.840;3.396;2023-04-01T21:47:34;23.70;;;9.65;;
28192;SDS011;15473;50.840;3.396;2023-04-01T21:50:42;17.95;;;8.50;;
28192;SDS011;15473;50.840;3.396;2023-04-01T22:05:06;19.65;;;10.23;;
28192;SDS011;15473;50.840;3.396;2023-04-01T22:07:44;20.00;;;9.83;;
28192;SDS011;15473;50.840;3.396;2023-04-01T22:10:38;23.80;;;12.13;;
28192;SDS011;15473;50.840;3.396;2023-04-01T22:13:26;22.75;;;10.75;;
28192;SDS011;15473;50.840;3.396;2023-04-01T22:16:32;23.15;;;10.23;;
28192;SDS011;15473;50.840;3.396;2023-04-01T22:22:25;28.12;;;11.12;;
28192;SDS011;15473;50.840;3.396;2023-04-01T22:25:18;24.37;;;10.88;;
28192;SDS011;15473;50.840;3.396;2023-04-01T22:27:58;27.77;;;10.38;;
28192;SDS011;15473;50.840;3.396;2023-04-01T22:30:50;24.75;;;10.38;;
28192;SDS011;15473;50.840;3.396;2023-04-01T22:36:25;20.95;;;10.95;;
28192;SDS011;15473;50.840;3.396;2023-04-01T22:39:18;21.75;;;10.68;;
28192;SDS011;15473;50.840;3.396;2023-04-01T22:44:49;23.00;;;11.03;;
28192;SDS011;15473;50.840;3.396;2023-04-01T22:47:47;25.85;;;10.20;;
28192;SDS011;15473;50.840;3.396;2023-04-01T22:50:20;26.35;;;10.88;;
28192;SDS011;15473;50.840;3.396;2023-04-01T22:53:47;22.75;;;11.15;;
28192;SDS011;15473;50.840;3.396;2023-04-01T22:55:47;25.23;;;10.88;;
28192;SDS011;15473;50.840;3.396;2023-04-01T22:58:24;27.22;;;10.95;;
28192;SDS011;15473;50.840;3.396;2023-04-01T23:00:59;23.60;;;10.45;;
28192;SDS011;15473;50.840;3.396;2023-04-01T23:03:46;24.77;;;9.58;;
28192;SDS011;15473;50.840;3.396;2023-04-01T23:06:20;23.85;;;10.48;;
28192;SDS011;15473;50.840;3.396;2023-04-01T23:12:02;21.15;;;9.35;;
28192;SDS011;15473;50.840;3.396;2023-04-01T23:14:41;23.32;;;9.53;;
28192;SDS011;15473;50.840;3.396;2023-04-01T23:17:56;19.90;;;9.00;;
28192;SDS011;15473;50.840;3.396;2023-04-01T23:20:28;20.08;;;8.63;;
28192;SDS011;15473;50.840;3.396;2023-04-01T23:23:12;28.50;;;8.20;;
28192;SDS011;15473;50.840;3.396;2023-04-01T23:29:02;21.90;;;8.35;;
28192;SDS011;15473;50.840;3.396;2023-04-01T23:31:39;17.23;;;7.00;;
28192;SDS011;15473;50.840;3.396;2023-04-01T23:34:28;19.17;;;7.05;;
28192;SDS011;15473;50.840;3.396;2023-04-01T23:37:12;23.80;;;7.50;;
28192;SDS011;15473;50.840;3.396;2023-04-01T23:39:59;15.72;;;6.85;;
28192;SDS011;15473;50.840;3.396;2023-04-01T23:42:30;12.43;;;6.53;;
28192;SDS011;15473;50.840;3.396;2023-04-01T23:45:16;17.73;;;7.62;;
28192;SDS011;15473;50.840;3.396;2023-04-01T23:48:07;13.32;;;7.03;;
28192;SDS011;15473;50.840;3.396;2023-04-01T23:50:39;16.12;;;7.15;;
28192;SDS011;15473;50.840;3.396;2023-04-01T23:53:24;17.30;;;6.92;;
28192;SDS011;15473;50.840;3.396;2023-04-01T23:56:04;15.53;;;7.35;;
28192;SDS011;15473;50.840;3.396;2023-04-01T23:58:48;18.87;;;8.08;;
